This demonstration page uses our WeatherBlox Daily Observations layout. Learn more.

38.88101, -77.10428

Hourly Observations for August 23, 2016

Temp ( °F °C ) Dew Point ( °F °C ) Humidity (%) Winds ( mph kmh ) Pressure ( in mb ) Visibility ( mi km ) Precip ( " mm )
12:52 am 00:52 Clear 73 22.8 63 17.2 71 71 NE 6 9 30.24 1024 10 16.09344 0 0
1:52 am 01:52 Clear 72 22.2 63 17.2 73 73 NE 7 11 30.24 1024 10 16.09344 0 0
2:52 am 02:52 Partly Cloudy 71 21.7 61 16.1 71 71 NE 3 6 30.24 1024 10 16.09344 0 0
3:52 am 03:52 Partly Cloudy 69 20.6 60 15.6 73 73 NNE 6 9 30.27 1025 10 16.09344 0 0
4:52 am 04:52 Partly Cloudy 69 20.6 60 15.6 73 73 NE 6 9 30.27 1025 10 16.09344 0 0
5:52 am 05:52 Mostly Clear 68 20 60 15.6 76 76 NE 7 11 30.3 1026 10 16.09344 0 0
6:52 am 06:52 Mostly Sunny 67 19.4 60 15.6 79 79 NE 6 9 30.33 1027 10 16.09344 0 0
7:52 am 07:52 Mostly Sunny 70 21.1 61 16.1 73 73 NE 5 7 30.33 1027 10 16.09344 0 0
8:52 am 08:52 Partly Cloudy 74 23.3 61 16.1 64 64 NE 5 7 30.33 1027 10 16.09344 0 0
9:52 am 09:52 Mostly Sunny 77 25 57 13.9 50 50 ESE 6 9 30.36 1028 10 16.09344 0 0
10:52 am 10:52 Mostly Sunny 79 26.1 56 13.3 45 45 S 5 7 30.36 1028 10 16.09344 0 0
11:52 am 11:52 Mostly Sunny 80 26.7 56 13.3 44 44 Calm 30.33 1027 10 16.09344 0 0
12:52 pm 12:52 Partly Cloudy 82 27.8 58 14.4 44 44 N 5 7 30.33 1027 10 16.09344 0 0
1:52 pm 13:52 Partly Cloudy 82 27.8 58 14.4 44 44 SSE 6 9 30.33 1027 10 16.09344 0 0
2:52 pm 14:52 Partly Cloudy 83 28.3 57 13.9 41 41 SE 6 9 30.3 1026 10 16.09344 0 0
3:52 pm 15:52 Mostly Cloudy 81 27.2 57 13.9 44 44 S 6 9 30.3 1026 10 16.09344 0 0
4:52 pm 16:52 Partly Cloudy 83 28.3 58 14.4 43 43 SE 3 6 30.27 1025 10 16.09344 0 0
5:52 pm 17:52 Partly Cloudy 83 28.3 59 15 44 44 S 8 13 30.27 1025 10 16.09344 0 0
6:52 pm 18:52 Mostly Cloudy 81 27.2 58 14.4 45 45 SSE 6 9 30.24 1024 10 16.09344 0 0
7:52 pm 19:52 Mostly Cloudy 79 26.1 60 15.6 52 52 SSW 7 11 30.27 1025 10 16.09344 0 0
8:52 pm 20:52 Partly Cloudy 76 24.4 58 14.4 54 54 SE 10 17 30.27 1025 10 16.09344 0 0
9:52 pm 21:52 Partly Cloudy 74 23.3 58 14.4 57 57 S 10 17 30.3 1026 10 16.09344 0 0
10:52 pm 22:52 Mostly Clear 74 23.3 60 15.6 62 62 S 7 11 30.3 1026 10 16.09344 0 0
11:52 pm 23:52 Clear 72 22.2 61 16.1 68 68 SW 5 7 30.3 1026 10 16.09344 0 0

Powered by AerisWeather